Time;durP1;ratioP1;P1;durP2;ratioP2;P2;SDS_P1;SDS_P2;PMS_P1;PMS_P2;Temp;Humidity;BMP_temperature;BMP_pressure;BME280_temperature;BME280_humidity;BME280_pressure;Samples;Min_cycle;Max_cycle;Signal;HPM_P1;HPM_P2
2022/06/11 00:01:22;;;;;;;3.38;1.00;;;20.40;67.60;;;;;;5111678;28;20039;-73
2022/06/11 00:03:51;;;;;;;1.45;1.05;;;20.40;67.60;;;;;;5111673;28;20100;-73
2022/06/11 00:06:18;;;;;;;3.63;1.38;;;20.30;67.50;;;;;;5111568;28;20489;-74
2022/06/11 00:08:45;;;;;;;3.50;1.27;;;20.30;67.50;;;;;;5111351;28;20114;-74
2022/06/11 00:11:11;;;;;;;1.83;1.20;;;20.30;67.50;;;;;;5111497;28;20039;-74
2022/06/11 00:13:37;;;;;;;3.20;1.00;;;20.30;67.50;;;;;;5111273;28;20050;-74
2022/06/11 00:16:04;;;;;;;1.45;0.95;;;20.30;67.50;;;;;;5111041;28;20054;-73
2022/06/11 00:18:31;;;;;;;1.13;0.70;;;20.30;67.50;;;;;;5130005;28;20122;-74
2022/06/11 00:20:56;;;;;;;2.63;0.80;;;20.30;67.50;;;;;;5111084;28;20035;-73
2022/06/11 00:23:22;;;;;;;1.85;0.90;;;20.30;67.50;;;;;;5129523;28;20031;-74
2022/06/11 00:25:51;;;;;;;1.77;0.90;;;20.30;67.50;;;;;;5111446;28;20039;-74
2022/06/11 00:28:16;;;;;;;1.83;0.90;;;20.30;67.50;;;;;;5111327;28;20031;-74
2022/06/11 00:30:43;;;;;;;1.00;0.70;;;20.30;67.50;;;;;;5111107;28;20382;-74
2022/06/11 00:33:08;;;;;;;1.95;0.70;;;20.30;67.50;;;;;;5129282;28;20043;-74
2022/06/11 00:35:36;;;;;;;1.98;1.15;;;20.20;67.50;;;;;;5129083;28;20044;-73
2022/06/11 00:38:03;;;;;;;2.05;1.10;;;20.20;67.50;;;;;;5110552;28;20051;-73
2022/06/11 00:40:30;;;;;;;2.13;1.10;;;20.30;67.60;;;;;;5110948;28;20443;-74
2022/06/11 00:42:56;;;;;;;1.90;0.77;;;20.20;67.50;;;;;;5110527;28;20044;-74
2022/06/11 00:45:33;;;;;;;1.27;0.73;;;20.20;67.50;;;;;;5110798;28;20398;-75
2022/06/11 00:48:05;;;;;;;2.78;1.00;;;20.20;67.50;;;;;;5104102;28;20043;-74
2022/06/11 00:53:17;;;;;;;1.30;0.85;;;20.20;67.50;;;;;;5130266;27;20354;-75
2022/06/11 00:55:45;;;;;;;2.97;1.10;;;20.20;67.40;;;;;;5128885;28;20498;-74
2022/06/11 00:58:15;;;;;;;1.25;1.00;;;20.20;67.50;;;;;;5128880;28;20043;-73
2022/06/11 01:00:46;;;;;;;1.48;0.80;;;20.20;67.50;;;;;;5129266;28;20431;-74
2022/06/11 01:03:13;;;;;;;;;;;20.20;67.50;;;;;;5129471;27;20364;-74
2022/06/11 01:05:43;;;;;;;1.40;0.60;;;20.20;67.50;;;;;;5129061;28;20006;-74
2022/06/11 01:11:14;;;;;;;1.70;0.93;;;20.20;67.50;;;;;;5130289;27;20407;-75
2022/06/11 01:19:47;;;;;;;1.10;0.60;;;20.10;67.50;;;;;;5152826;27;1169599;-75
2022/06/11 01:25:27;;;;;;;1.33;0.70;;;20.10;67.50;;;;;;5089383;28;20619;-75
2022/06/11 01:31:32;;;;;;;1.80;0.82;;;20.10;67.50;;;;;;5130118;27;20382;-73
2022/06/11 01:36:50;;;;;;;1.08;0.70;;;20.00;67.50;;;;;;5130265;27;20334;-74
2022/06/11 01:42:04;;;;;;;1.20;0.68;;;20.10;67.50;;;;;;5130233;27;20763;-74
2022/06/11 01:44:36;;;;;;;1.75;1.00;;;20.00;67.50;;;;;;5128923;28;20482;-74
2022/06/11 01:47:03;;;;;;;2.65;0.98;;;19.90;67.40;;;;;;5128936;28;20486;-73
2022/06/11 02:01:33;;;;;;;1.65;0.73;;;20.00;67.40;;;;;;5150899;27;20461;-73
2022/06/11 02:04:18;;;;;;;1.60;0.50;;;19.90;67.40;;;;;;5128667;28;20514;-71
2022/06/11 02:15:04;;;;;;;1.90;0.80;;;19.90;67.40;;;;;;5153530;27;1154877;-73
2022/06/11 02:17:41;;;;;;;2.08;0.68;;;19.90;67.50;;;;;;5153126;27;20042;-75
2022/06/11 02:20:12;;;;;;;1.58;0.80;;;19.90;67.40;;;;;;5152947;27;20089;-74
2022/06/11 02:25:30;;;;;;;2.10;0.98;;;19.90;67.40;;;;;;5150921;27;20365;-73
2022/06/11 02:28:00;;;;;;;2.00;1.08;;;19.80;67.40;;;;;;5128961;28;20059;-73
2022/06/11 02:30:30;;;;;;;1.88;0.88;;;19.90;67.40;;;;;;5129152;28;20047;-74
2022/06/11 02:32:57;;;;;;;1.30;0.95;;;19.90;67.50;;;;;;5129182;28;20051;-75
2022/06/11 02:38:10;;;;;;;2.78;1.50;;;19.90;67.50;;;;;;5130304;27;20759;-67
2022/06/11 02:40:38;;;;;;;;;;;19.80;67.50;;;;;;5129387;28;20052;-73
2022/06/11 02:43:04;;;;;;;3.17;1.20;;;19.80;67.60;;;;;;5129119;28;19984;-75
2022/06/11 02:45:30;;;;;;;0.95;0.70;;;19.80;67.60;;;;;;5128792;28;20067;-75
2022/06/11 02:47:56;;;;;;;1.67;1.33;;;19.80;67.60;;;;;;5129075;28;20075;-73
2022/06/11 02:50:27;;;;;;;1.35;1.08;;;19.80;67.60;;;;;;5128964;28;20438;-73
2022/06/11 02:52:54;;;;;;;2.28;1.48;;;19.80;67.70;;;;;;5128934;28;20059;-74
2022/06/11 02:55:21;;;;;;;2.28;1.40;;;19.80;67.70;;;;;;5128924;28;20035;-68
2022/06/11 02:57:47;;;;;;;2.35;1.20;;;19.80;67.70;;;;;;5128491;28;20544;-73
2022/06/11 03:00:19;;;;;;;2.03;1.30;;;19.80;67.70;;;;;;5128822;28;20047;-78
2022/06/11 03:02:48;;;;;;;2.00;0.85;;;19.80;67.70;;;;;;5128556;28;20111;-73
2022/06/11 03:05:16;;;;;;;1.80;1.17;;;19.80;67.70;;;;;;5128673;28;20084;-73
2022/06/11 03:07:46;;;;;;;2.20;1.08;;;19.80;67.80;;;;;;5129842;27;20084;-73
2022/06/11 03:10:16;;;;;;;3.38;1.17;;;19.70;67.70;;;;;;5129579;27;20436;-74
2022/06/11 03:12:42;;;;;;;2.45;1.13;;;19.70;67.70;;;;;;5128635;28;20114;-73
2022/06/11 03:15:10;;;;;;;1.25;0.93;;;19.70;67.80;;;;;;5129597;27;20122;-73
2022/06/11 03:17:36;;;;;;;1.58;0.98;;;19.70;67.80;;;;;;5128135;28;20035;-73
2022/06/11 03:20:04;;;;;;;4.93;1.13;;;19.70;67.80;;;;;;5128224;28;20541;-75
2022/06/11 03:22:29;;;;;;;1.77;0.90;;;19.70;67.80;;;;;;5128357;28;20046;-74
2022/06/11 03:24:55;;;;;;;2.42;1.55;;;19.70;67.80;;;;;;5128328;28;20040;-73
2022/06/11 03:27:21;;;;;;;2.75;1.02;;;19.70;67.80;;;;;;5127977;28;20127;-74
2022/06/11 03:29:47;;;;;;;1.80;1.70;;;19.70;67.80;;;;;;5128378;28;20043;-75
2022/06/11 03:32:13;;;;;;;2.83;0.90;;;19.70;67.80;;;;;;5129474;27;20124;-73
2022/06/11 03:34:39;;;;;;;1.33;0.80;;;19.70;67.80;;;;;;5128209;28;20067;-74
2022/06/11 03:37:05;;;;;;;1.25;0.80;;;19.70;67.80;;;;;;5127392;28;20343;-74
2022/06/11 03:39:31;;;;;;;2.28;0.90;;;19.70;67.80;;;;;;5127752;28;20047;-75
2022/06/11 03:41:57;;;;;;;1.60;1.00;;;19.70;67.70;;;;;;5127942;28;20050;-75
2022/06/11 03:44:24;;;;;;;2.90;1.00;;;19.70;67.70;;;;;;5127936;28;20116;-73
2022/06/11 03:46:50;;;;;;;3.03;0.63;;;19.70;67.70;;;;;;5127731;28;20071;-73
2022/06/11 03:49:17;;;;;;;2.50;0.90;;;19.70;67.70;;;;;;5114880;28;20042;-69
2022/06/11 03:51:44;;;;;;;1.88;1.00;;;19.70;67.60;;;;;;5113805;28;20050;-75
2022/06/11 03:54:10;;;;;;;2.00;0.82;;;19.70;67.60;;;;;;5113880;28;20028;-74
2022/06/11 03:56:37;;;;;;;1.45;0.80;;;19.60;67.60;;;;;;5115420;28;20426;-72
2022/06/11 03:59:03;;;;;;;2.67;1.20;;;19.60;67.50;;;;;;5114112;28;20043;-73
2022/06/11 04:01:29;;;;;;;2.85;0.75;;;19.60;67.50;;;;;;5115009;28;20044;-73
2022/06/11 04:03:58;;;;;;;1.98;1.27;;;19.60;67.50;;;;;;5113555;28;20127;-66
2022/06/11 04:06:29;;;;;;;1.75;0.80;;;19.60;67.50;;;;;;5114955;28;20479;-74
2022/06/11 04:08:56;;;;;;;1.65;0.70;;;19.70;67.40;;;;;;5113464;28;20092;-73
2022/06/11 04:11:22;;;;;;;2.17;1.05;;;19.60;67.30;;;;;;5113598;28;20048;-73
2022/06/11 04:13:49;;;;;;;1.73;0.70;;;19.60;67.30;;;;;;5113459;28;20047;-73
2022/06/11 04:19:17;;;;;;;3.55;0.82;;;19.60;67.20;;;;;;5151378;27;20110;-74
2022/06/11 04:21:44;;;;;;;4.07;0.90;;;19.60;67.20;;;;;;5128931;28;20054;-73
2022/06/11 04:24:10;;;;;;;3.42;0.70;;;19.60;67.20;;;;;;5129151;28;20439;-73
2022/06/11 04:26:40;;;;;;;1.15;0.60;;;19.60;68.00;;;;;;5129198;28;20040;-74
2022/06/11 04:29:08;;;;;;;2.05;0.60;;;19.60;67.20;;;;;;5130242;27;20541;-73
2022/06/11 04:31:35;;;;;;;1.27;0.47;;;19.60;67.10;;;;;;5129128;28;20446;-73
2022/06/11 04:34:04;;;;;;;1.43;0.80;;;19.60;67.10;;;;;;5128969;28;20039;-73
2022/06/11 04:36:33;;;;;;;2.40;0.80;;;19.60;67.10;;;;;;5128955;28;21083;-73
2022/06/11 04:38:59;;;;;;;1.65;0.70;;;19.60;67.10;;;;;;5128531;28;20043;-72
2022/06/11 04:41:24;;;;;;;1.98;0.90;;;19.60;67.00;;;;;;5128611;28;20053;-73
2022/06/11 04:43:50;;;;;;;2.28;0.80;;;19.60;67.00;;;;;;5128770;28;20266;-67
2022/06/11 04:46:17;;;;;;;1.42;0.70;;;19.60;67.00;;;;;;5128524;28;20119;-72
2022/06/11 04:48:43;;;;;;;1.42;0.50;;;19.60;67.00;;;;;;5128426;28;20146;-73
2022/06/11 04:51:11;;;;;;;1.08;0.60;;;19.60;67.00;;;;;;5128369;28;20122;-73
2022/06/11 04:53:37;;;;;;;1.80;0.60;;;19.60;66.90;;;;;;5128548;28;20486;-73
2022/06/11 04:56:03;;;;;;;1.35;0.60;;;19.60;66.90;;;;;;5129710;27;20273;-73
2022/06/11 04:58:29;;;;;;;1.40;0.90;;;19.60;66.90;;;;;;5128236;28;20052;-73
2022/06/11 05:00:55;;;;;;;1.85;0.80;;;19.60;66.90;;;;;;5128400;28;20043;-72
2022/06/11 05:03:21;;;;;;;2.28;0.90;;;19.60;66.90;;;;;;5129559;27;20110;-72
2022/06/11 05:05:46;;;;;;;2.22;0.90;;;19.60;66.90;;;;;;5128263;28;20131;-71
2022/06/11 05:08:15;;;;;;;1.42;0.65;;;19.60;66.90;;;;;;5129627;28;20482;-68
2022/06/11 05:10:41;;;;;;;1.98;0.80;;;19.60;66.80;;;;;;5129448;27;20497;-72
2022/06/11 05:13:08;;;;;;;1.90;0.63;;;19.60;66.90;;;;;;5128296;28;20410;-72
2022/06/11 05:15:37;;;;;;;3.38;0.93;;;19.60;66.80;;;;;;5129437;27;20036;-73
2022/06/11 05:18:03;;;;;;;2.30;0.82;;;19.60;66.80;;;;;;5128845;28;20078;-69
2022/06/11 05:20:29;;;;;;;3.13;1.20;;;19.60;66.80;;;;;;5128811;28;20108;-71
2022/06/11 05:22:54;;;;;;;1.48;1.00;;;19.60;66.90;;;;;;5128859;28;20047;-73
2022/06/11 05:25:20;;;;;;;2.40;0.85;;;19.60;66.80;;;;;;5128285;28;20077;-71
2022/06/11 05:27:47;;;;;;;1.98;0.70;;;19.60;66.80;;;;;;5128168;28;20088;-73
2022/06/11 05:30:19;;;;;;;1.67;0.80;;;19.60;66.80;;;;;;5115782;28;20044;-74
2022/06/11 05:32:46;;;;;;;4.80;1.70;;;19.60;66.70;;;;;;5114220;28;20047;-74
2022/06/11 05:35:19;;;;;;;1.63;0.70;;;19.60;66.70;;;;;;5113836;28;20559;-73
2022/06/11 05:37:47;;;;;;;2.15;0.60;;;19.60;66.70;;;;;;5114012;28;20438;-75
2022/06/11 05:40:16;;;;;;;3.10;0.80;;;19.60;66.70;;;;;;5113764;28;20050;-73
2022/06/11 05:42:47;;;;;;;2.23;0.77;;;19.60;66.70;;;;;;5113384;28;20036;-73
2022/06/11 05:45:15;;;;;;;1.65;1.00;;;19.60;66.60;;;;;;5093550;28;20254;-73
2022/06/11 05:47:42;;;;;;;1.60;0.68;;;19.60;66.60;;;;;;5093255;28;20040;-73
2022/06/11 05:50:08;;;;;;;3.22;0.88;;;19.60;66.60;;;;;;5094693;28;20036;-75
2022/06/11 05:52:38;;;;;;;3.67;1.10;;;19.60;66.50;;;;;;5094652;28;20044;-73
2022/06/11 05:55:04;;;;;;;2.97;0.70;;;19.60;66.50;;;;;;5093272;28;20055;-74
2022/06/11 05:57:30;;;;;;;2.17;0.70;;;19.60;66.50;;;;;;5093194;28;20186;-73
2022/06/11 06:00:00;;;;;;;2.63;0.90;;;19.60;66.50;;;;;;5093089;28;20122;-71
2022/06/11 06:02:27;;;;;;;2.22;1.10;;;19.60;66.50;;;;;;5092899;28;20036;-73
2022/06/11 06:04:53;;;;;;;3.63;1.00;;;19.60;66.40;;;;;;5092971;28;20036;-70
2022/06/11 06:07:19;;;;;;;2.90;0.82;;;19.60;66.30;;;;;;5093203;28;20046;-74
2022/06/11 06:09:44;;;;;;;3.20;0.55;;;19.60;66.30;;;;;;5092858;28;20048;-73
2022/06/11 06:12:10;;;;;;;3.58;0.65;;;19.60;66.30;;;;;;5092804;28;20070;-73
2022/06/11 06:14:36;;;;;;;1.77;0.77;;;19.60;66.20;;;;;;5094098;28;20092;-73
2022/06/11 06:17:02;;;;;;;3.03;1.02;;;19.60;66.20;;;;;;5092516;28;20530;-73
2022/06/11 06:19:28;;;;;;;2.20;0.95;;;19.70;66.20;;;;;;5092661;28;20032;-73
2022/06/11 06:21:53;;;;;;;2.55;0.82;;;19.70;66.20;;;;;;5093738;28;20044;-74
2022/06/11 06:24:19;;;;;;;1.75;0.60;;;19.70;66.20;;;;;;5092944;28;20044;-73
2022/06/11 06:26:45;;;;;;;2.67;1.05;;;19.70;66.10;;;;;;5092781;28;20682;-74
2022/06/11 06:29:10;;;;;;;4.90;1.00;;;19.70;66.10;;;;;;5093699;28;20131;-73
2022/06/11 06:31:37;;;;;;;2.95;0.90;;;19.70;66.10;;;;;;5092440;28;20237;-73
2022/06/11 06:34:03;;;;;;;3.00;0.88;;;19.70;66.00;;;;;;5092290;28;20044;-73
2022/06/11 06:36:30;;;;;;;1.95;0.70;;;19.70;66.00;;;;;;5092400;28;20344;-73
2022/06/11 06:38:56;;;;;;;3.35;0.98;;;19.70;65.90;;;;;;5092104;28;20074;-73
2022/06/11 06:41:22;;;;;;;3.05;0.80;;;19.70;65.90;;;;;;5091370;28;20028;-73
2022/06/11 06:43:49;;;;;;;3.17;0.70;;;19.70;65.90;;;;;;5103026;28;20088;-73
2022/06/11 06:46:15;;;;;;;3.20;0.90;;;19.70;65.80;;;;;;5112777;28;20126;-74
2022/06/11 06:48:43;;;;;;;4.45;0.70;;;19.70;65.80;;;;;;5112562;28;20100;-74
2022/06/11 06:51:10;;;;;;;5.70;0.73;;;19.70;65.80;;;;;;5113907;28;20047;-72
2022/06/11 06:53:38;;;;;;;3.28;1.00;;;19.70;65.80;;;;;;5112290;28;20039;-73
2022/06/11 06:56:05;;;;;;;2.70;0.52;;;19.70;65.70;;;;;;5112339;28;20051;-74
2022/06/11 06:58:30;;;;;;;4.63;1.08;;;19.70;65.70;;;;;;5112179;28;20391;-74
2022/06/11 07:00:56;;;;;;;3.65;1.00;;;19.70;65.60;;;;;;5112234;28;20045;-73
2022/06/11 07:03:22;;;;;;;2.40;1.13;;;19.70;65.60;;;;;;5112032;28;20058;-74
2022/06/11 07:05:49;;;;;;;1.90;0.70;;;19.70;65.60;;;;;;5112134;28;20039;-73
2022/06/11 07:08:16;;;;;;;3.13;0.98;;;19.70;65.60;;;;;;5113565;28;20116;-73
2022/06/11 07:10:48;;;;;;;3.83;0.65;;;19.80;65.60;;;;;;5112081;28;20035;-73
2022/06/11 07:13:14;;;;;;;3.42;0.80;;;19.80;65.50;;;;;;5112140;28;20130;-73
2022/06/11 07:15:41;;;;;;;3.97;0.80;;;19.80;65.40;;;;;;5111971;28;20502;-74
2022/06/11 07:18:15;;;;;;;3.40;0.80;;;19.80;65.40;;;;;;5111424;28;20522;-72
2022/06/11 07:20:42;;;;;;;3.60;0.65;;;19.80;65.30;;;;;;5113258;28;20093;-74
2022/06/11 07:23:15;;;;;;;4.78;0.90;;;19.80;65.20;;;;;;5113083;28;20110;-74
2022/06/11 07:25:43;;;;;;;3.42;0.98;;;19.80;65.20;;;;;;5111732;28;20075;-73
2022/06/11 07:28:18;;;;;;;4.57;1.08;;;19.80;65.10;;;;;;5111713;28;20075;-74
2022/06/11 07:30:45;;;;;;;4.65;1.10;;;19.90;65.20;;;;;;5111814;28;20108;-72
2022/06/11 07:33:15;;;;;;;6.90;1.63;;;19.90;65.10;;;;;;5111924;28;20058;-73
2022/06/11 07:35:41;;;;;;;6.10;1.20;;;19.90;65.00;;;;;;5107507;28;20038;-71
2022/06/11 07:38:12;;;;;;;3.42;0.63;;;19.90;64.90;;;;;;5091091;28;20044;-70
2022/06/11 07:40:38;;;;;;;3.50;0.70;;;19.90;65.00;;;;;;5091314;28;20032;-64
2022/06/11 07:43:06;;;;;;;3.25;0.80;;;19.90;65.00;;;;;;5100840;28;20429;-70
2022/06/11 07:45:33;;;;;;;3.03;0.88;;;20.00;65.00;;;;;;5112501;28;20044;-70
2022/06/11 07:47:59;;;;;;;2.85;0.73;;;20.00;65.00;;;;;;5102044;28;20036;-70
2022/06/11 07:50:30;;;;;;;4.32;0.70;;;20.00;64.80;;;;;;5095423;28;20395;-70
2022/06/11 07:52:56;;;;;;;5.60;1.02;;;20.00;64.80;;;;;;5095631;28;20399;-71
2022/06/11 07:55:22;;;;;;;8.23;1.38;;;20.10;65.00;;;;;;5099799;28;20035;-72
2022/06/11 07:57:49;;;;;;;4.57;0.75;;;20.10;65.20;;;;;;5099754;28;20031;-69
2022/06/11 08:00:19;;;;;;;5.18;1.40;;;20.20;65.30;;;;;;5100311;28;20464;-71
2022/06/11 08:02:45;;;;;;;;;;;20.20;65.50;;;;;;5090255;28;20036;-72
2022/06/11 08:05:14;;;;;;;6.28;0.70;;;20.30;65.40;;;;;;5090461;28;20054;-72
2022/06/11 08:07:39;;;;;;;6.38;1.25;;;20.30;65.30;;;;;;5089861;28;21056;-72
2022/06/11 08:10:06;;;;;;;5.18;1.35;;;20.30;65.10;;;;;;5105319;28;20177;-74
2022/06/11 08:12:31;;;;;;;6.88;1.08;;;20.40;65.10;;;;;;5101198;28;20040;-73
2022/06/11 08:14:57;;;;;;;8.13;0.80;;;20.40;65.00;;;;;;5090589;28;20040;-72
2022/06/11 08:17:25;;;;;;;5.97;1.42;;;20.40;65.70;;;;;;5092969;28;20056;-72
2022/06/11 08:19:51;;;;;;;2.88;0.77;;;20.50;64.80;;;;;;5091759;28;20098;-66
2022/06/11 08:22:17;;;;;;;4.65;0.98;;;20.50;64.70;;;;;;5103192;28;20059;-65
2022/06/11 08:24:43;;;;;;;5.47;0.63;;;20.60;64.50;;;;;;5111265;28;20100;-70
2022/06/11 08:27:09;;;;;;;3.63;0.68;;;20.70;64.40;;;;;;5112227;28;20035;-72
2022/06/11 08:29:34;;;;;;;6.10;1.30;;;20.70;64.20;;;;;;5111000;28;20042;-65
2022/06/11 08:32:00;;;;;;;3.58;0.98;;;20.80;64.00;;;;;;5112345;28;20387;-71
2022/06/11 08:34:25;;;;;;;3.45;1.00;;;20.90;63.80;;;;;;5111100;28;20555;-69
2022/06/11 08:36:51;;;;;;;5.20;0.73;;;21.00;63.60;;;;;;5111418;28;20067;-70
2022/06/11 08:39:17;;;;;;;5.80;1.25;;;21.10;63.40;;;;;;5094638;28;20525;-73
2022/06/11 08:41:42;;;;;;;3.25;1.00;;;21.20;63.10;;;;;;5091371;28;20034;-72
2022/06/11 08:44:11;;;;;;;4.82;0.80;;;21.20;62.70;;;;;;5103474;28;20395;-72
2022/06/11 08:46:40;;;;;;;5.68;1.05;;;21.40;62.20;;;;;;5107895;28;20488;-73
2022/06/11 08:51:58;;;;;;;5.35;1.20;;;21.50;61.60;;;;;;5130180;27;20411;-72
2022/06/11 08:54:29;;;;;;;8.20;0.70;;;21.60;61.00;;;;;;5129429;28;20429;-67
2022/06/11 08:57:13;;;;;;;4.82;1.05;;;21.80;60.90;;;;;;5128873;27;20873;-67
2022/06/11 09:00:18;;;;;;;5.13;0.85;;;21.90;60.30;;;;;;5129155;28;20092;-67
2022/06/11 09:08:43;;;;;;;4.60;0.65;;;22.20;59.80;;;;;;5192844;27;20587;-68
2022/06/11 09:17:04;;;;;;;3.05;0.85;;;22.80;57.90;;;;;;5130256;27;20407;-69
2022/06/11 09:23:02;;;;;;;2.55;0.50;;;22.90;57.10;;;;;;5128848;27;1182561;-67
2022/06/11 09:31:12;;;;;;;5.93;1.00;;;23.10;57.00;;;;;;5151542;27;1167452;-68
2022/06/11 09:33:47;;;;;;;4.18;0.80;;;23.20;56.10;;;;;;5171776;27;20466;-67
2022/06/11 09:36:21;;;;;;;6.35;0.77;;;23.20;56.10;;;;;;5155289;27;20042;-70
2022/06/11 09:44:49;;;;;;;5.80;1.10;;;23.30;55.80;;;;;;5129162;27;20841;-68
2022/06/11 09:47:29;;;;;;;4.13;0.60;;;23.30;55.70;;;;;;5129224;27;20122;-72
2022/06/11 09:50:21;;;;;;;3.65;0.95;;;23.30;55.60;;;;;;5128969;28;20035;-70
2022/06/11 09:52:59;;;;;;;3.15;0.50;;;23.30;55.60;;;;;;5127914;28;20073;-70
2022/06/11 09:55:38;;;;;;;4.53;0.85;;;23.30;55.50;;;;;;5127042;27;20045;-70
2022/06/11 10:01:01;;;;;;;4.15;0.70;;;23.30;55.30;;;;;;5129239;27;20366;-68
2022/06/11 10:17:44;;;;;;;5.40;0.80;;;23.20;55.20;;;;;;5118351;27;20104;-72
2022/06/11 10:20:19;;;;;;;4.13;0.85;;;23.20;55.30;;;;;;5088598;28;20068;-73
2022/06/11 10:22:54;;;;;;;5.65;0.93;;;23.10;55.30;;;;;;5091215;28;20052;-73
2022/06/11 10:25:47;;;;;;;5.85;0.77;;;23.10;55.30;;;;;;5090992;28;20439;-73
2022/06/11 10:28:20;;;;;;;5.25;1.27;;;23.10;55.30;;;;;;5089954;28;20097;-72
2022/06/11 10:33:41;;;;;;;7.18;1.00;;;23.10;55.10;;;;;;5130190;27;20747;-76
2022/06/11 10:36:17;;;;;;;3.53;0.50;;;23.10;55.10;;;;;;5128920;28;20079;-73
2022/06/11 10:38:54;;;;;;;12.27;1.33;;;23.00;55.00;;;;;;5129241;28;20432;-73
2022/06/11 10:44:31;;;;;;;5.80;0.60;;;23.00;55.30;;;;;;5130247;27;20756;-78
2022/06/11 10:46:57;;;;;;;5.95;0.95;;;23.00;55.20;;;;;;5129058;28;20047;-79
2022/06/11 10:49:23;;;;;;;8.63;0.85;;;23.00;55.10;;;;;;5127686;28;20031;-79
2022/06/11 10:52:01;;;;;;;11.95;1.25;;;22.90;54.90;;;;;;5128729;28;20036;-78
2022/06/11 10:54:27;;;;;;;5.95;0.60;;;22.90;54.90;;;;;;5127861;27;20115;-82
2022/06/11 10:57:02;;;;;;;3.85;0.40;;;22.90;55.00;;;;;;5128019;28;20139;-80
2022/06/11 10:59:48;;;;;;;6.30;0.60;;;22.90;55.10;;;;;;5129526;27;20562;-67
2022/06/11 11:02:24;;;;;;;4.82;0.40;;;22.90;55.20;;;;;;5107999;28;20044;-67
2022/06/11 11:16:15;;;;;;;5.88;0.70;;;22.80;55.50;;;;;;5130168;27;20312;-69
2022/06/11 11:18:48;;;;;;;10.05;1.75;;;22.80;55.30;;;;;;5129288;28;20036;-65
2022/06/11 11:21:21;;;;;;;10.23;1.48;;;22.80;55.30;;;;;;5129121;28;20040;-66
2022/06/11 11:23:50;;;;;;;7.93;1.90;;;22.80;55.40;;;;;;5127372;27;20051;-67
2022/06/11 11:29:03;;;;;;;9.82;1.65;;;22.80;55.50;;;;;;5130193;27;20382;-66
2022/06/11 11:31:41;;;;;;;5.88;1.10;;;22.80;55.70;;;;;;5128951;27;20096;-82
2022/06/11 11:36:58;;;;;;;6.78;0.88;;;22.80;55.80;;;;;;5129487;27;20905;-79
2022/06/11 11:39:28;;;;;;;7.88;0.63;;;22.80;55.50;;;;;;5139204;27;20046;-76
2022/06/11 11:44:39;;;;;;;3.83;0.85;;;22.80;55.70;;;;;;5129452;27;20943;-75
2022/06/11 11:47:14;;;;;;;6.82;0.60;;;22.80;55.70;;;;;;5121694;27;20040;-73
2022/06/11 11:49:41;;;;;;;2.38;0.65;;;22.80;55.80;;;;;;5109806;28;20036;-72
2022/06/11 11:52:15;;;;;;;3.35;0.40;;;22.90;56.50;;;;;;5106807;28;20048;-69
2022/06/11 11:57:34;;;;;;;5.68;1.08;;;22.90;55.60;;;;;;5089675;27;20382;-72
2022/06/11 12:02:46;;;;;;;4.22;0.50;;;22.80;55.70;;;;;;5130284;27;20456;-71
2022/06/11 12:07:59;;;;;;;3.78;0.60;;;22.70;55.80;;;;;;5130720;27;20383;-71
2022/06/11 12:10:37;;;;;;;4.22;0.90;;;22.60;55.90;;;;;;5129017;27;20047;-72
2022/06/11 12:13:18;;;;;;;6.43;1.02;;;22.50;55.80;;;;;;5129136;27;20043;-73
2022/06/11 12:15:53;;;;;;;5.20;0.80;;;22.50;55.90;;;;;;5128945;28;20046;-72
2022/06/11 12:18:29;;;;;;;3.90;0.70;;;22.40;55.90;;;;;;5129995;27;20100;-71
2022/06/11 12:21:00;;;;;;;5.50;0.82;;;22.40;56.10;;;;;;5130156;27;20447;-70
2022/06/11 12:26:28;;;;;;;6.55;0.80;;;22.40;56.10;;;;;;5105389;27;2466071;-72
2022/06/11 12:29:10;;;;;;;4.40;0.70;;;22.30;56.10;;;;;;5152943;27;20053;-72
2022/06/11 12:31:36;;;;;;;4.45;1.10;;;22.30;56.10;;;;;;5153139;27;20035;-73
2022/06/11 12:34:10;;;;;;;4.53;0.98;;;22.30;56.10;;;;;;5153044;27;20107;-72
2022/06/11 12:36:58;;;;;;;3.00;0.70;;;22.30;56.20;;;;;;5171759;27;20060;-72
2022/06/11 12:40:01;;;;;;;4.28;1.02;;;22.30;56.30;;;;;;5152676;27;20053;-72
2022/06/11 13:02:22;;;;;;;3.25;0.68;;;22.20;56.20;;;;;;5109824;27;20137;-72
2022/06/11 13:08:10;;;;;;;4.43;0.60;;;22.30;56.20;;;;;;5130364;27;20358;-72
2022/06/11 13:16:16;;;;;;;4.82;0.80;;;22.20;56.20;;;;;;5130148;27;20366;-72
2022/06/11 13:21:59;;;;;;;2.42;0.70;;;22.20;56.10;;;;;;5150578;27;1228256;-71
2022/06/11 13:30:26;;;;;;;5.65;1.10;;;22.20;56.20;;;;;;5130215;27;20414;-72
2022/06/11 13:39:15;;;;;;;5.38;1.33;;;22.20;56.20;;;;;;5089492;27;20360;-71
2022/06/11 13:55:29;;;;;;;3.42;0.90;;;22.20;56.30;;;;;;5152182;27;20125;-72
2022/06/11 14:06:18;;;;;;;3.80;0.95;;;22.20;56.30;;;;;;5130635;27;20929;-73
2022/06/11 14:14:32;;;;;;;3.17;0.70;;;22.20;56.30;;;;;;5130371;27;20174;-71
2022/06/11 14:16:58;;;;;;;2.90;0.80;;;22.20;56.40;;;;;;5128836;28;20058;-69
2022/06/11 14:22:02;;;;;;;4.57;1.07;;;22.20;56.40;;;;;;5152790;27;1165121;-72
2022/06/11 14:55:14;;;;;;;2.60;0.60;;;22.30;56.40;;;;;;5089266;28;20364;-71
2022/06/11 15:04:04;;;;;;;5.28;1.17;;;22.30;56.40;;;;;;5130486;27;20197;-72
2022/06/11 15:06:36;;;;;;;2.85;0.98;;;22.30;56.40;;;;;;5145855;27;20487;-71
2022/06/11 15:17:21;;;;;;;3.92;0.80;;;22.30;56.40;;;;;;5130267;27;20350;-70
2022/06/11 15:19:53;;;;;;;3.80;1.00;;;22.30;56.50;;;;;;5130212;27;20110;-71
2022/06/11 15:25:13;;;;;;;4.10;0.65;;;22.30;56.40;;;;;;5130160;27;20302;-71
2022/06/11 15:27:46;;;;;;;4.97;0.75;;;22.40;56.50;;;;;;5129008;28;20525;-73
2022/06/11 15:38:39;;;;;;;2.85;0.70;;;22.30;56.60;;;;;;5130218;27;20391;-71
2022/06/11 15:41:16;;;;;;;4.53;0.88;;;22.30;56.90;;;;;;5129024;28;20071;-73
2022/06/11 15:43:48;;;;;;;5.00;1.27;;;22.30;56.80;;;;;;5128918;27;20403;-73
2022/06/11 15:55:12;;;;;;;4.78;1.15;;;22.40;56.70;;;;;;5130269;27;20349;-71
2022/06/11 15:57:40;;;;;;;3.63;1.08;;;22.40;56.60;;;;;;5129284;28;20104;-71
2022/06/11 16:00:11;;;;;;;4.43;0.52;;;22.40;56.60;;;;;;5128987;28;20043;-71
2022/06/11 16:02:40;;;;;;;4.63;0.70;;;22.40;56.70;;;;;;5128947;27;20114;-71
2022/06/11 16:05:06;;;;;;;4.72;1.00;;;22.40;56.70;;;;;;5128887;28;20440;-71
2022/06/11 16:07:31;;;;;;;2.67;0.88;;;22.40;56.70;;;;;;5129989;27;20039;-71
2022/06/11 16:09:59;;;;;;;3.25;0.70;;;22.40;56.70;;;;;;5129057;28;20483;-71
2022/06/11 16:12:30;;;;;;;3.00;0.63;;;22.40;56.80;;;;;;5129949;27;20036;-71
2022/06/11 16:14:59;;;;;;;3.80;0.77;;;22.40;56.80;;;;;;5128708;27;20039;-71
2022/06/11 16:17:30;;;;;;;4.72;0.73;;;22.40;56.90;;;;;;5128369;28;20040;-71
2022/06/11 16:19:58;;;;;;;3.40;0.90;;;22.40;56.90;;;;;;5128799;27;20095;-71
2022/06/11 16:22:27;;;;;;;3.55;0.85;;;22.40;56.90;;;;;;5144181;27;20114;-72
2022/06/11 16:25:04;;;;;;;3.35;0.65;;;22.40;56.90;;;;;;5129825;27;20653;-71
2022/06/11 16:27:34;;;;;;;3.85;0.47;;;22.40;56.80;;;;;;5128635;27;20051;-71
2022/06/11 16:32:46;;;;;;;4.60;1.08;;;22.40;56.80;;;;;;5089266;27;20923;-68
2022/06/11 16:35:33;;;;;;;6.18;0.93;;;22.40;56.90;;;;;;5122164;27;20048;-72
2022/06/11 16:37:59;;;;;;;4.07;0.73;;;22.40;56.90;;;;;;5088153;28;20048;-71
2022/06/11 16:43:17;;;;;;;4.25;1.33;;;22.40;56.90;;;;;;5150794;27;20859;-72
2022/06/11 16:45:46;;;;;;;2.63;0.90;;;22.40;57.00;;;;;;5128981;28;20046;-71
2022/06/11 16:48:25;;;;;;;8.43;1.45;;;22.40;57.10;;;;;;5130166;27;20088;-72
2022/06/11 16:56:38;;;;;;;3.67;0.90;;;22.30;57.20;;;;;;5128911;28;20402;-72
2022/06/11 16:59:15;;;;;;;6.40;0.98;;;22.30;57.30;;;;;;5130007;27;20039;-72
2022/06/11 17:01:44;;;;;;;3.95;0.98;;;22.30;57.30;;;;;;5129957;27;20444;-72
2022/06/11 17:09:55;;;;;;;4.07;0.88;;;22.30;57.40;;;;;;5130705;27;20387;-73
2022/06/11 17:17:55;;;;;;;3.83;1.17;;;22.30;57.40;;;;;;5130275;27;20406;-71
2022/06/11 17:20:41;;;;;;;4.57;0.82;;;22.20;57.40;;;;;;5129036;28;20052;-71
2022/06/11 17:23:20;;;;;;;3.95;0.80;;;22.30;57.50;;;;;;5128880;28;20088;-73
2022/06/11 17:25:48;;;;;;;5.45;0.90;;;22.30;57.50;;;;;;5130495;27;20047;-72
2022/06/11 17:28:32;;;;;;;3.90;1.30;;;22.30;57.60;;;;;;5128984;28;20093;-72
2022/06/11 17:30:59;;;;;;;4.82;0.93;;;22.30;57.60;;;;;;5128872;28;20061;-71
2022/06/11 17:33:25;;;;;;;4.55;0.68;;;22.20;57.50;;;;;;5129891;27;20110;-73
2022/06/11 17:35:52;;;;;;;4.22;1.35;;;22.30;57.60;;;;;;5128720;28;20060;-71
2022/06/11 17:38:35;;;;;;;4.68;1.10;;;22.30;57.60;;;;;;5128636;28;20082;-72
2022/06/11 17:41:09;;;;;;;4.50;1.42;;;22.20;57.60;;;;;;5128975;28;20050;-72
2022/06/11 17:43:35;;;;;;;4.47;0.98;;;22.20;57.60;;;;;;5129954;27;20047;-72
2022/06/11 17:46:01;;;;;;;3.58;0.70;;;22.20;57.60;;;;;;5128621;28;20039;-72
2022/06/11 17:48:27;;;;;;;5.70;0.90;;;22.20;57.60;;;;;;5128740;28;20113;-71
2022/06/11 17:50:56;;;;;;;5.30;1.00;;;22.20;57.60;;;;;;5128616;28;20039;-73
2022/06/11 17:53:22;;;;;;;3.70;1.00;;;22.30;57.60;;;;;;5128336;28;20043;-72
2022/06/11 17:55:49;;;;;;;5.50;1.33;;;22.20;57.60;;;;;;5111375;28;20044;-71
2022/06/11 17:58:14;;;;;;;4.57;1.45;;;22.20;57.60;;;;;;5129585;27;20039;-71